createdAt,value
2024-01-12T00:00:07.869Z,17.88
2024-01-12T00:02:38.763Z,14.07
2024-01-12T00:05:06.118Z,16.38
2024-01-12T00:07:32.720Z,15.52
2024-01-12T00:09:59.469Z,15.80
2024-01-12T00:12:26.291Z,13.50
2024-01-12T00:14:52.907Z,14.13
2024-01-12T00:17:19.800Z,13.30
2024-01-12T00:19:47.379Z,13.88
2024-01-12T00:22:13.919Z,15.70
2024-01-12T00:24:40.477Z,13.90
2024-01-12T00:27:07.111Z,13.63
2024-01-12T00:29:33.728Z,12.57
2024-01-12T00:32:00.284Z,12.52
2024-01-12T00:34:26.866Z,13.95
2024-01-12T00:36:54.789Z,11.93
2024-01-12T00:39:21.431Z,12.48
2024-01-12T00:41:48.438Z,11.95
2024-01-12T00:44:15.131Z,11.95
2024-01-12T00:46:43.832Z,10.48
2024-01-12T00:49:11.037Z,10.95
2024-01-12T00:51:37.645Z,13.10
2024-01-12T00:54:05.277Z,10.15
2024-01-12T00:56:31.950Z,11.27
2024-01-12T00:58:58.553Z,10.38
2024-01-12T01:01:25.205Z,10.25
2024-01-12T01:03:51.823Z,9.75
2024-01-12T01:06:18.718Z,8.75
2024-01-12T01:08:47.026Z,10.95
2024-01-12T01:11:13.629Z,11.77
2024-01-12T01:13:40.260Z,11.68
2024-01-12T01:16:07.185Z,10.38
2024-01-12T01:18:37.191Z,10.20
2024-01-12T01:21:04.473Z,11.02
2024-01-12T01:23:31.120Z,12.88
2024-01-12T01:25:57.886Z,11.52
2024-01-12T01:28:24.357Z,9.90
2024-01-12T01:30:51.034Z,11.95
2024-01-12T01:33:18.075Z,14.55
2024-01-12T01:35:44.764Z,18.15
2024-01-12T01:38:11.530Z,16.50
2024-01-12T01:40:37.999Z,15.02
2024-01-12T01:43:09.451Z,14.57
2024-01-12T01:45:37.378Z,15.02
2024-01-12T01:48:08.071Z,15.10
2024-01-12T01:50:35.556Z,16.67
2024-01-12T01:53:04.760Z,16.63
2024-01-12T01:55:32.744Z,16.45
2024-01-12T01:58:01.056Z,16.02
2024-01-12T02:00:28.107Z,15.47
2024-01-12T02:02:54.911Z,17.05
2024-01-12T02:05:22.895Z,15.70
2024-01-12T02:07:49.442Z,16.63
2024-01-12T02:10:16.010Z,17.95
2024-01-12T02:12:42.788Z,15.52
2024-01-12T02:15:10.124Z,17.23
2024-01-12T02:17:37.362Z,17.35
2024-01-12T02:20:04.431Z,18.50
2024-01-12T02:22:31.627Z,16.17
2024-01-12T02:24:58.432Z,17.75
2024-01-12T02:27:25.093Z,15.32
2024-01-12T02:29:52.712Z,15.25
2024-01-12T02:32:19.311Z,13.90
2024-01-12T02:34:45.838Z,15.95
2024-01-12T02:37:12.379Z,16.85
2024-01-12T02:39:38.924Z,16.23
2024-01-12T02:42:05.409Z,15.38
2024-01-12T02:44:31.936Z,15.90
2024-01-12T02:46:58.585Z,15.93
2024-01-12T02:49:25.169Z,17.40
2024-01-12T02:51:56.192Z,17.27
2024-01-12T02:54:26.546Z,16.98
2024-01-12T02:56:53.140Z,17.40
2024-01-12T02:59:20.091Z,16.58
2024-01-12T03:01:46.642Z,14.02
2024-01-12T03:04:13.250Z,14.85
2024-01-12T03:06:39.903Z,15.25
2024-01-12T03:09:06.927Z,12.65
2024-01-12T03:11:33.627Z,14.23
2024-01-12T03:14:00.175Z,14.48
2024-01-12T03:16:28.478Z,11.68
2024-01-12T03:18:55.237Z,12.23
2024-01-12T03:21:22.064Z,13.40
2024-01-12T03:23:49.305Z,11.68
2024-01-12T03:26:16.242Z,12.68
2024-01-12T03:28:42.741Z,11.95
2024-01-12T03:31:09.245Z,12.85
2024-01-12T03:33:36.124Z,11.57
2024-01-12T03:36:06.942Z,11.68
2024-01-12T03:38:33.621Z,13.35
2024-01-12T03:41:00.161Z,13.52
2024-01-12T03:43:26.698Z,15.15
2024-01-12T03:45:53.210Z,14.60
2024-01-12T03:48:19.824Z,14.70
2024-01-12T03:50:46.370Z,12.75
2024-01-12T03:53:13.138Z,14.10
2024-01-12T03:55:39.704Z,13.32
2024-01-12T03:58:06.187Z,11.52
2024-01-12T04:00:32.721Z,12.10
2024-01-12T04:02:59.340Z,10.68
2024-01-12T04:05:25.915Z,10.40
2024-01-12T04:07:52.395Z,12.13
2024-01-12T04:10:18.979Z,10.25
2024-01-12T04:12:45.459Z,10.35
2024-01-12T04:15:12.368Z,14.23
2024-01-12T04:17:39.065Z,17.23
2024-01-12T04:20:05.880Z,15.50
2024-01-12T04:22:32.662Z,16.10
2024-01-12T04:24:59.439Z,14.20
2024-01-12T04:27:27.595Z,14.85
2024-01-12T04:29:54.174Z,15.35
2024-01-12T04:32:20.848Z,14.77
2024-01-12T04:34:47.453Z,13.98
2024-01-12T04:37:14.030Z,11.63
2024-01-12T04:39:41.814Z,11.77
2024-01-12T04:42:08.527Z,11.70
2024-01-12T04:44:35.165Z,11.70
2024-01-12T04:47:01.740Z,11.27
2024-01-12T04:49:28.459Z,10.43
2024-01-12T04:51:54.939Z,10.30
2024-01-12T04:54:21.717Z,11.73
2024-01-12T04:56:51.266Z,11.85
2024-01-12T04:59:19.706Z,10.57
2024-01-12T05:01:46.729Z,11.65
2024-01-12T05:04:13.873Z,10.52
2024-01-12T05:06:40.939Z,9.48
2024-01-12T05:09:07.936Z,10.35
2024-01-12T05:11:34.917Z,10.25
2024-01-12T05:14:01.513Z,9.88
2024-01-12T05:16:27.963Z,10.55
2024-01-12T05:18:54.847Z,10.30
2024-01-12T05:21:22.141Z,8.38
2024-01-12T05:23:48.816Z,9.40
2024-01-12T05:26:15.734Z,8.55
2024-01-12T05:28:42.541Z,9.07
2024-01-12T05:31:12.112Z,9.38
2024-01-12T05:33:38.920Z,8.68
2024-01-12T05:36:05.842Z,9.55
2024-01-12T05:38:33.580Z,11.57
2024-01-12T05:41:00.583Z,9.30
2024-01-12T05:43:27.504Z,10.73
2024-01-12T05:45:54.154Z,9.52
2024-01-12T05:48:20.857Z,8.88
2024-01-12T05:50:47.476Z,8.50
2024-01-12T05:53:13.973Z,10.20
2024-01-12T05:55:40.493Z,9.57
2024-01-12T05:58:07.036Z,10.25
2024-01-12T06:00:33.489Z,8.70
2024-01-12T06:03:00.052Z,10.93
2024-01-12T06:05:26.874Z,10.07
2024-01-12T06:07:53.402Z,11.15
2024-01-12T06:10:20.021Z,11.25
2024-01-12T06:12:47.010Z,9.18
2024-01-12T06:15:13.764Z,10.73
2024-01-12T06:17:40.448Z,11.40
2024-01-12T06:20:08.501Z,10.50
2024-01-12T06:22:35.021Z,13.23
2024-01-12T06:25:01.557Z,10.02
2024-01-12T06:27:28.048Z,10.85
2024-01-12T06:29:54.918Z,11.32
2024-01-12T06:32:21.536Z,12.20
2024-01-12T06:34:48.556Z,12.35
2024-01-12T06:37:15.274Z,12.75
2024-01-12T06:39:41.812Z,13.00
2024-01-12T06:42:08.699Z,11.35
2024-01-12T06:44:39.817Z,14.82
2024-01-12T06:47:06.341Z,10.60
2024-01-12T06:49:32.853Z,10.07
2024-01-12T06:51:59.859Z,12.77
2024-01-12T06:54:26.412Z,13.95
2024-01-12T06:56:57.039Z,11.90
2024-01-12T06:59:24.369Z,10.85
2024-01-12T07:01:50.977Z,12.77
2024-01-12T07:04:17.563Z,12.45
2024-01-12T07:06:44.449Z,61.42
2024-01-12T07:09:15.060Z,19.58
2024-01-12T07:11:42.994Z,13.77
2024-01-12T07:14:14.474Z,15.00
2024-01-12T07:16:41.637Z,13.10
2024-01-12T07:19:08.275Z,18.30
2024-01-12T07:21:35.566Z,19.73
2024-01-12T07:24:02.899Z,18.63
2024-01-12T07:26:29.876Z,14.85
2024-01-12T07:28:56.511Z,14.95
2024-01-12T07:31:23.139Z,16.08
2024-01-12T07:33:49.804Z,17.77
2024-01-12T07:36:16.973Z,15.00
2024-01-12T07:38:43.607Z,20.63
2024-01-12T07:41:10.318Z,17.65
2024-01-12T07:43:37.981Z,15.40
2024-01-12T07:46:05.225Z,16.77
2024-01-12T07:48:32.694Z,21.95
2024-01-12T07:50:59.348Z,20.25
2024-01-12T07:53:25.933Z,18.92
2024-01-12T07:55:53.434Z,18.40
2024-01-12T07:58:21.220Z,18.42
2024-01-12T08:00:47.848Z,20.65
2024-01-12T08:03:14.528Z,19.45
2024-01-12T08:05:41.149Z,17.95
2024-01-12T08:08:07.654Z,17.55
2024-01-12T08:10:34.680Z,17.05
2024-01-12T08:13:01.238Z,16.77
2024-01-12T08:15:28.257Z,16.70
2024-01-12T08:17:55.205Z,16.50
2024-01-12T08:20:21.816Z,17.17
2024-01-12T08:22:48.363Z,17.65
2024-01-12T08:25:14.927Z,17.77
2024-01-12T08:27:41.493Z,15.90
2024-01-12T08:30:11.572Z,18.45
2024-01-12T08:32:40.488Z,18.23
2024-01-12T08:35:09.391Z,19.17
2024-01-12T08:37:35.907Z,19.13
2024-01-12T08:40:02.826Z,18.30
2024-01-12T08:42:29.463Z,16.27
2024-01-12T08:44:55.917Z,17.40
2024-01-12T08:47:22.576Z,15.57
2024-01-12T08:49:49.219Z,18.90
2024-01-12T08:52:15.752Z,18.20
2024-01-12T08:54:43.286Z,15.73
2024-01-12T08:57:09.922Z,16.52
2024-01-12T08:59:36.382Z,18.00
2024-01-12T09:02:02.872Z,16.25
2024-01-12T09:04:29.821Z,19.42
2024-01-12T09:06:56.534Z,17.02
2024-01-12T09:09:23.115Z,19.40
2024-01-12T09:11:49.629Z,16.27
2024-01-12T09:14:16.194Z,18.27
2024-01-12T09:16:42.656Z,17.20
2024-01-12T09:19:09.515Z,16.90
2024-01-12T09:21:36.150Z,19.85
2024-01-12T09:24:02.823Z,16.42
2024-01-12T09:26:30.033Z,18.45
2024-01-12T09:28:56.722Z,16.20
2024-01-12T09:31:23.293Z,16.75
2024-01-12T09:33:50.060Z,17.23
2024-01-12T09:36:16.798Z,16.48
2024-01-12T09:38:43.997Z,17.13
2024-01-12T09:41:13.547Z,15.70
2024-01-12T09:43:40.768Z,15.70
2024-01-12T09:46:09.583Z,16.13
2024-01-12T09:48:36.350Z,15.90
2024-01-12T09:51:04.465Z,15.93
2024-01-12T09:53:31.078Z,17.27
2024-01-12T09:56:05.259Z,15.50
2024-01-12T09:58:37.532Z,15.23
2024-01-12T10:01:04.803Z,12.75
2024-01-12T10:03:31.645Z,14.20
2024-01-12T10:05:58.393Z,15.00
2024-01-12T10:08:35.652Z,15.10
2024-01-12T10:11:02.191Z,12.93
2024-01-12T10:13:28.711Z,13.50
2024-01-12T10:15:55.337Z,14.57
2024-01-12T10:18:21.919Z,12.90
2024-01-12T10:20:49.707Z,13.40
2024-01-12T10:23:22.625Z,14.73
2024-01-12T10:26:00.551Z,13.80
2024-01-12T10:28:30.873Z,14.75
2024-01-12T10:30:57.994Z,12.75
2024-01-12T10:33:25.112Z,15.00
2024-01-12T10:36:06.416Z,13.98
2024-01-12T10:38:35.996Z,13.35
2024-01-12T10:41:06.099Z,11.90
2024-01-12T10:43:37.210Z,12.50
2024-01-12T10:46:12.962Z,11.18
2024-01-12T10:48:46.275Z,12.85
2024-01-12T10:51:14.568Z,15.32
2024-01-12T10:53:52.576Z,11.05
2024-01-12T10:56:19.172Z,13.20
2024-01-12T10:58:46.136Z,12.43
2024-01-12T11:01:12.732Z,10.55
2024-01-12T11:03:40.034Z,10.90
2024-01-12T11:06:07.339Z,12.15
2024-01-12T11:08:34.824Z,9.57
2024-01-12T11:11:02.717Z,9.30
2024-01-12T11:13:30.051Z,10.88
2024-01-12T11:15:56.956Z,11.13
2024-01-12T11:18:24.204Z,10.75
2024-01-12T11:21:01.152Z,11.70
2024-01-12T11:23:27.782Z,9.60
2024-01-12T11:25:54.799Z,10.82
2024-01-12T11:28:21.282Z,10.23
2024-01-12T11:30:51.515Z,10.00
2024-01-12T11:33:21.228Z,10.38
2024-01-12T11:35:52.490Z,10.85
2024-01-12T11:38:20.234Z,11.80
2024-01-12T11:40:50.019Z,15.48
2024-01-12T11:43:18.481Z,15.65
2024-01-12T11:45:47.639Z,20.17
2024-01-12T11:48:15.655Z,29.65
2024-01-12T11:50:43.041Z,32.42
2024-01-12T11:53:10.114Z,37.13
2024-01-12T11:55:39.557Z,37.72
2024-01-12T11:58:06.274Z,30.75
2024-01-12T12:00:32.951Z,30.25
2024-01-12T12:02:59.475Z,31.38
2024-01-12T12:05:27.252Z,32.20
2024-01-12T12:07:54.173Z,35.63
2024-01-12T12:10:26.825Z,34.75
2024-01-12T12:12:59.910Z,38.40
2024-01-12T12:15:26.769Z,35.42
2024-01-12T12:17:54.684Z,34.22
2024-01-12T12:20:21.358Z,37.92
2024-01-12T12:22:48.234Z,38.65
2024-01-12T12:25:16.794Z,38.30
2024-01-12T12:27:44.995Z,38.50
2024-01-12T12:30:15.181Z,37.10
2024-01-12T12:32:44.636Z,38.67
2024-01-12T12:35:21.354Z,42.08
2024-01-12T12:40:24.848Z,43.75
2024-01-12T12:42:51.394Z,50.47
2024-01-12T12:45:18.524Z,46.53
2024-01-12T12:47:46.240Z,48.35
2024-01-12T12:50:13.624Z,49.88
2024-01-12T12:52:41.377Z,45.15
2024-01-12T12:55:08.784Z,50.40
2024-01-12T12:57:35.829Z,49.95
2024-01-12T13:00:05.483Z,39.20
2024-01-12T13:02:32.868Z,50.08
2024-01-12T13:04:59.515Z,41.55
2024-01-12T13:07:26.090Z,46.83
2024-01-12T13:09:56.895Z,46.65
2024-01-12T13:12:24.664Z,48.50
2024-01-12T13:14:52.726Z,39.47
2024-01-12T13:17:21.505Z,45.40
2024-01-12T13:19:48.467Z,46.45
2024-01-12T13:22:15.429Z,44.10
2024-01-12T13:24:42.028Z,42.70
2024-01-12T13:27:08.688Z,39.03
2024-01-12T13:29:35.541Z,48.70
2024-01-12T13:32:03.884Z,46.47
2024-01-12T13:34:30.620Z,47.47
2024-01-12T13:37:01.668Z,44.80
2024-01-12T13:39:28.437Z,48.03
2024-01-12T13:41:55.050Z,47.38
2024-01-12T13:44:21.636Z,49.15
2024-01-12T13:46:48.160Z,47.13
2024-01-12T13:49:14.999Z,49.55
2024-01-12T13:51:42.424Z,46.15
2024-01-12T13:54:09.487Z,47.28
2024-01-12T13:56:36.290Z,50.30
2024-01-12T13:59:04.713Z,59.38
2024-01-12T14:01:34.060Z,48.22
2024-01-12T14:04:01.590Z,50.20
2024-01-12T14:06:28.246Z,47.88
2024-01-12T14:08:55.040Z,43.92
2024-01-12T14:11:21.707Z,53.45
2024-01-12T14:13:48.781Z,49.65
2024-01-12T14:16:16.828Z,46.13
2024-01-12T14:18:43.537Z,46.50
2024-01-12T14:21:10.279Z,48.70
2024-01-12T14:23:36.967Z,42.42
2024-01-12T14:26:04.130Z,48.08
2024-01-12T14:28:33.350Z,47.63
2024-01-12T14:31:02.237Z,43.47
2024-01-12T14:33:31.077Z,36.97
2024-01-12T14:35:58.898Z,39.33
2024-01-12T14:38:26.207Z,40.15
2024-01-12T14:40:52.753Z,35.88
2024-01-12T14:43:19.205Z,35.63
2024-01-12T14:45:45.694Z,39.15
2024-01-12T14:48:14.226Z,34.08
2024-01-12T14:50:44.630Z,33.58
2024-01-12T14:53:11.525Z,33.30
2024-01-12T14:55:39.275Z,33.03
2024-01-12T14:58:05.907Z,36.25
2024-01-12T15:00:32.610Z,39.25
2024-01-12T15:02:59.392Z,36.83
2024-01-12T15:05:26.738Z,46.70
2024-01-12T15:07:53.637Z,45.28
2024-01-12T15:10:20.393Z,38.20
2024-01-12T15:12:47.548Z,36.95
2024-01-12T15:15:15.319Z,34.65
2024-01-12T15:17:42.229Z,39.97
2024-01-12T15:20:09.930Z,39.00
2024-01-12T15:22:36.636Z,41.00
2024-01-12T15:25:06.543Z,36.88
2024-01-12T15:27:34.474Z,35.13
2024-01-12T15:30:01.057Z,37.65
2024-01-12T15:32:27.924Z,38.92
2024-01-12T15:34:54.695Z,39.60
2024-01-12T15:37:21.319Z,37.97
2024-01-12T15:39:47.970Z,35.75
2024-01-12T15:42:14.603Z,38.55
2024-01-12T15:44:41.853Z,40.75
2024-01-12T15:47:08.676Z,34.67
2024-01-12T15:49:35.699Z,35.83
2024-01-12T15:52:02.473Z,34.33
2024-01-12T15:54:29.008Z,32.05
2024-01-12T15:56:55.737Z,32.30
2024-01-12T15:59:23.221Z,33.25
2024-01-12T16:01:49.943Z,33.50
2024-01-12T16:04:18.102Z,32.30
2024-01-12T16:06:48.324Z,28.15
2024-01-12T16:09:15.401Z,31.20
2024-01-12T16:11:42.168Z,29.02
2024-01-12T16:14:08.845Z,22.27
2024-01-12T16:16:35.380Z,24.52
2024-01-12T16:19:08.281Z,24.40
2024-01-12T16:21:41.465Z,26.15
2024-01-12T16:24:09.773Z,26.15
2024-01-12T16:26:38.638Z,27.13
2024-01-12T16:29:05.121Z,28.48
2024-01-12T16:31:31.778Z,31.92
2024-01-12T16:33:58.415Z,27.23
2024-01-12T16:36:25.009Z,27.73
2024-01-12T16:38:51.580Z,25.08
2024-01-12T16:41:18.114Z,27.60
2024-01-12T16:43:44.716Z,21.33
2024-01-12T16:46:11.277Z,20.80
2024-01-12T16:48:38.094Z,23.80
2024-01-12T16:51:04.905Z,23.63
2024-01-12T16:53:31.744Z,21.55
2024-01-12T16:55:58.336Z,22.98
2024-01-12T16:58:24.801Z,22.27
2024-01-12T17:00:52.328Z,21.02
2024-01-12T17:03:19.297Z,20.10
2024-01-12T17:05:45.978Z,21.17
2024-01-12T17:08:12.634Z,23.52
2024-01-12T17:10:39.113Z,19.50
2024-01-12T17:13:05.628Z,23.25
2024-01-12T17:15:32.188Z,25.00
2024-01-12T17:17:58.856Z,30.83
2024-01-12T17:20:25.567Z,21.58
2024-01-12T17:22:52.314Z,19.02
2024-01-12T17:25:18.801Z,19.20
2024-01-12T17:27:47.040Z,21.77
2024-01-12T17:30:15.691Z,20.30
2024-01-12T17:32:45.899Z,22.95
2024-01-12T17:35:12.598Z,24.75
2024-01-12T17:37:42.727Z,20.15
2024-01-12T17:40:12.171Z,20.67
2024-01-12T17:42:41.569Z,16.40
2024-01-12T17:45:11.223Z,19.05
2024-01-12T17:47:38.001Z,17.55
2024-01-12T17:50:05.470Z,19.65
2024-01-12T17:52:32.062Z,20.60
2024-01-12T17:54:58.733Z,20.95
2024-01-12T17:57:26.270Z,23.73
2024-01-12T17:59:53.846Z,23.50
2024-01-12T18:02:20.492Z,26.48
2024-01-12T18:04:48.941Z,31.08
2024-01-12T18:07:16.190Z,19.98
2024-01-12T18:09:45.170Z,22.55
2024-01-12T18:12:13.286Z,20.02
2024-01-12T18:14:41.080Z,20.17
2024-01-12T18:17:07.800Z,21.10
2024-01-12T18:19:34.695Z,19.90
2024-01-12T18:22:01.805Z,20.52
2024-01-12T18:24:28.406Z,20.58
2024-01-12T18:26:54.982Z,20.13
2024-01-12T18:29:24.670Z,24.38
2024-01-12T18:31:53.555Z,20.67
2024-01-12T18:34:20.343Z,19.95
2024-01-12T18:36:47.409Z,20.80
2024-01-12T18:39:14.241Z,21.25
2024-01-12T18:41:41.560Z,20.77
2024-01-12T18:44:08.053Z,20.45
2024-01-12T18:46:34.766Z,22.58
2024-01-12T18:49:01.539Z,21.23
2024-01-12T18:51:28.333Z,21.70
2024-01-12T18:53:54.995Z,21.75
2024-01-12T18:56:21.523Z,20.55
2024-01-12T18:58:48.093Z,19.27
2024-01-12T19:01:14.685Z,22.38
2024-01-12T19:03:42.156Z,22.40
2024-01-12T19:06:08.896Z,21.02
2024-01-12T19:08:35.656Z,20.55
2024-01-12T19:11:02.419Z,20.15
2024-01-12T19:13:29.324Z,23.73
2024-01-12T19:15:56.418Z,23.45
2024-01-12T19:18:23.176Z,23.00
2024-01-12T19:20:49.898Z,22.73
2024-01-12T19:23:16.776Z,19.98
2024-01-12T19:25:43.297Z,24.50
2024-01-12T19:28:09.887Z,21.80
2024-01-12T19:30:36.389Z,26.48
2024-01-12T19:33:04.405Z,22.40
2024-01-12T19:35:31.152Z,26.27
2024-01-12T19:37:57.739Z,25.35
2024-01-12T19:40:35.347Z,26.38
2024-01-12T19:43:01.867Z,26.80
2024-01-12T19:45:28.321Z,23.52
2024-01-12T19:47:54.851Z,25.25
2024-01-12T19:50:21.438Z,26.58
2024-01-12T19:52:48.269Z,26.63
2024-01-12T19:55:15.702Z,25.17
2024-01-12T19:57:42.260Z,25.52
2024-01-12T20:00:09.377Z,31.30
2024-01-12T20:02:36.077Z,30.63
2024-01-12T20:05:06.085Z,31.48
2024-01-12T20:07:34.451Z,31.02
2024-01-12T20:10:01.960Z,28.52
2024-01-12T20:12:32.343Z,25.23
2024-01-12T20:14:58.965Z,25.35
2024-01-12T20:17:25.788Z,28.33
2024-01-12T20:19:54.487Z,30.35
2024-01-12T20:22:21.190Z,28.30
2024-01-12T20:24:47.680Z,27.20
2024-01-12T20:27:14.268Z,28.65
2024-01-12T20:29:42.273Z,27.48
2024-01-12T20:32:08.738Z,28.52
2024-01-12T20:34:35.649Z,28.23
2024-01-12T20:37:02.751Z,26.58
2024-01-12T20:39:29.292Z,28.80
2024-01-12T20:41:56.204Z,27.35
2024-01-12T20:44:22.878Z,30.83
2024-01-12T20:46:49.382Z,29.92
2024-01-12T20:49:16.150Z,31.00
2024-01-12T20:51:42.659Z,26.27
2024-01-12T20:54:10.118Z,28.35
2024-01-12T20:56:37.052Z,30.02
2024-01-12T20:59:03.699Z,29.98
2024-01-12T21:01:30.479Z,39.00
2024-01-12T21:03:57.259Z,36.65
2024-01-12T21:06:23.945Z,46.30
2024-01-12T21:08:50.859Z,34.05
2024-01-12T21:11:17.503Z,29.40
2024-01-12T21:13:44.050Z,27.42
2024-01-12T21:16:10.694Z,26.95
2024-01-12T21:18:37.605Z,24.05
2024-01-12T21:21:05.285Z,25.73
2024-01-12T21:23:32.558Z,22.15
2024-01-12T21:25:59.036Z,27.52
2024-01-12T21:28:25.580Z,25.55
2024-01-12T21:30:52.213Z,27.50
2024-01-12T21:33:20.039Z,26.30
2024-01-12T21:35:46.785Z,29.63
2024-01-12T21:38:13.447Z,33.13
2024-01-12T21:40:39.991Z,26.75
2024-01-12T21:43:06.584Z,27.15
2024-01-12T21:45:33.030Z,29.23
2024-01-12T21:47:59.963Z,25.77
2024-01-12T21:50:26.497Z,28.70
2024-01-12T21:52:53.000Z,28.55
2024-01-12T21:55:19.436Z,26.63
2024-01-12T21:57:46.633Z,27.33
2024-01-12T22:00:15.069Z,25.63
2024-01-12T22:02:41.678Z,32.78
2024-01-12T22:05:10.703Z,30.67
2024-01-12T22:07:37.830Z,24.48
2024-01-12T22:10:06.620Z,25.73
2024-01-12T22:12:33.338Z,23.95
2024-01-12T22:15:00.336Z,25.65
2024-01-12T22:17:27.016Z,23.40
2024-01-12T22:19:54.802Z,27.23
2024-01-12T22:22:21.527Z,26.08
2024-01-12T22:24:49.360Z,27.33
2024-01-12T22:27:15.871Z,25.38
2024-01-12T22:29:42.473Z,25.45
2024-01-12T22:32:10.253Z,25.00
2024-01-12T22:34:36.824Z,28.38
2024-01-12T22:37:04.141Z,25.98
2024-01-12T22:39:30.772Z,27.50
2024-01-12T22:41:57.276Z,29.05
2024-01-12T22:44:25.336Z,29.98
2024-01-12T22:46:52.935Z,30.33
2024-01-12T22:49:19.734Z,31.50
2024-01-12T22:51:46.341Z,29.67
2024-01-12T22:54:12.971Z,33.47
2024-01-12T22:56:39.585Z,34.40
2024-01-12T22:59:06.101Z,33.30
2024-01-12T23:01:32.628Z,32.28
2024-01-12T23:03:59.283Z,30.33
2024-01-12T23:06:25.965Z,34.15
2024-01-12T23:08:54.378Z,33.10
2024-01-12T23:11:20.972Z,31.90
2024-01-12T23:13:47.485Z,32.63
2024-01-12T23:16:13.972Z,35.17
2024-01-12T23:18:40.712Z,33.88
2024-01-12T23:21:07.291Z,33.85
2024-01-12T23:23:33.910Z,26.45
2024-01-12T23:26:00.582Z,30.90
2024-01-12T23:28:27.256Z,29.13
2024-01-12T23:30:53.997Z,30.98
2024-01-12T23:33:20.840Z,27.88
2024-01-12T23:35:47.587Z,33.78
2024-01-12T23:38:18.836Z,32.42
2024-01-12T23:40:52.430Z,34.00
2024-01-12T23:43:18.943Z,30.65
2024-01-12T23:45:48.825Z,32.38
2024-01-12T23:48:26.982Z,34.25
2024-01-12T23:50:57.680Z,31.52
2024-01-12T23:53:24.735Z,32.05
2024-01-12T23:55:51.447Z,32.22
2024-01-12T23:58:26.213Z,33.40
